Strona główna
METAR-TAF:

METAR-TAF

Lotnisko :

Rouen, Francja

Szerokość geograficzna: 49-23N, Długość geograficzna: 001-11E, wysokość: 157 m

Aktualna obserwacja pogody

Raport powstał 27 minut temu, godzina 23:00 UTC
Wiatr 6 kt od wschodnio-południowy wschód
Temperatura 8°C
Wilgotność 66%
Ciśnienie 1019 hPa
Widzialność 10 km lub więcej
Brak chmur poniżej 1500 m i brak chmur cumulonimbus

METAR: LFOP 042300Z AUTO 11006KT CAVOK 08/02 Q1019

czas: 01:27 (23:27 UTC)


TAF: brakujący

Obserwacja i prognoza pogody dla ponad 4000 lotnisk (raport METAR i TAF).

Dostępne stacje oznaczono żółtymi i czerwonymi punktami na mapie.

Najedź kursorem aby zobaczyć nazwę stacji.

Kliknij aby zobaczyć obserwacje i prognozy pogody.

Aby zmienić mapę: kliknij na zielony przycisk z czarnym krzyżykiem, aby powiększyć; na zielony przycisk z myślnikiem, aby pomniejszyć; na zielone strzałki, aby przejść do map sąsiednich.


METAR-TAF: